createdAt,value
2022-11-03T00:02:05.505Z,16.65
2022-11-03T00:04:32.215Z,6.30
2022-11-03T00:06:59.374Z,14.70
2022-11-03T00:09:27.599Z,9.98
2022-11-03T00:11:54.564Z,12.07
2022-11-03T00:14:21.687Z,11.80
2022-11-03T00:16:48.545Z,10.75
2022-11-03T00:19:17.155Z,11.88
2022-11-03T00:21:44.797Z,7.47
2022-11-03T00:24:11.562Z,9.68
2022-11-03T00:26:39.415Z,12.05
2022-11-03T00:29:14.806Z,13.85
2022-11-03T00:31:44.467Z,9.13
2022-11-03T00:34:11.563Z,18.73
2022-11-03T00:36:43.290Z,10.13
2022-11-03T00:39:11.247Z,10.95
2022-11-03T00:41:38.900Z,12.43
2022-11-03T00:44:06.089Z,11.40
2022-11-03T00:46:35.634Z,9.63
2022-11-03T00:49:04.560Z,10.68
2022-11-03T00:51:34.355Z,19.77
2022-11-03T00:54:03.439Z,17.77
2022-11-03T00:56:33.369Z,11.45
2022-11-03T00:59:01.733Z,13.35
2022-11-03T01:01:37.050Z,12.93
2022-11-03T01:04:26.140Z,12.05
2022-11-03T01:06:54.798Z,8.90
2022-11-03T01:09:26.347Z,9.32
2022-11-03T01:12:04.043Z,9.75
2022-11-03T01:14:43.967Z,5.85
2022-11-03T01:17:27.917Z,10.18
2022-11-03T01:19:55.192Z,11.35
2022-11-03T01:22:23.402Z,10.25
2022-11-03T01:24:51.785Z,8.68
2022-11-03T01:27:20.941Z,14.70
2022-11-03T01:29:48.675Z,9.20
2022-11-03T01:32:15.293Z,16.35
2022-11-03T01:34:42.399Z,7.43
2022-11-03T01:37:09.193Z,12.40
2022-11-03T01:39:35.878Z,11.63
2022-11-03T01:42:02.888Z,7.35
2022-11-03T01:44:43.521Z,13.15
2022-11-03T01:47:17.571Z,11.32
2022-11-03T01:49:52.825Z,15.40
2022-11-03T01:52:25.016Z,18.17
2022-11-03T01:55:11.138Z,15.50
2022-11-03T01:57:54.232Z,9.73
2022-11-03T02:00:22.270Z,19.48
2022-11-03T02:02:50.540Z,18.60
2022-11-03T02:05:19.595Z,10.30
2022-11-03T02:07:48.678Z,6.15
2022-11-03T02:10:15.623Z,7.75
2022-11-03T02:12:44.515Z,14.85
2022-11-03T02:15:16.278Z,7.25
2022-11-03T02:17:44.577Z,14.65
2022-11-03T02:20:17.852Z,11.07
2022-11-03T02:23:02.253Z,6.70
2022-11-03T02:25:44.051Z,12.02
2022-11-03T02:28:12.660Z,11.77
2022-11-03T02:30:46.218Z,8.45
2022-11-03T02:33:21.782Z,6.65
2022-11-03T02:36:12.105Z,8.88
2022-11-03T02:38:47.095Z,5.45
2022-11-03T02:41:16.224Z,11.65
2022-11-03T02:43:44.742Z,10.35
2022-11-03T02:46:13.614Z,4.43
2022-11-03T02:48:40.305Z,20.65
2022-11-03T02:51:06.904Z,14.93
2022-11-03T02:53:39.553Z,9.88
2022-11-03T02:56:21.921Z,5.38
2022-11-03T02:59:08.615Z,7.35
2022-11-03T03:01:47.569Z,9.20
2022-11-03T03:04:38.150Z,10.30
2022-11-03T03:07:08.502Z,4.95
2022-11-03T03:09:46.227Z,8.25
2022-11-03T03:12:18.241Z,7.07
2022-11-03T03:14:47.006Z,11.48
2022-11-03T03:17:31.347Z,11.95
2022-11-03T03:20:16.371Z,9.38
2022-11-03T03:22:43.016Z,10.02
2022-11-03T03:25:18.797Z,7.93
2022-11-03T03:27:55.381Z,7.68
2022-11-03T03:30:22.423Z,9.15
2022-11-03T03:32:51.348Z,12.35
2022-11-03T03:35:22.692Z,7.90
2022-11-03T03:37:54.617Z,9.75
2022-11-03T03:40:26.311Z,11.02
2022-11-03T03:42:53.425Z,11.50
2022-11-03T03:45:20.842Z,8.05
2022-11-03T03:47:48.557Z,9.38
2022-11-03T03:50:15.341Z,7.28
2022-11-03T03:52:42.101Z,15.30
2022-11-03T03:55:17.428Z,13.50
2022-11-03T03:57:44.785Z,9.63
2022-11-03T04:00:16.158Z,9.38
2022-11-03T04:02:42.921Z,4.88
2022-11-03T04:05:09.526Z,12.48
2022-11-03T04:07:48.114Z,11.38
2022-11-03T04:10:16.134Z,7.93
2022-11-03T04:13:02.888Z,7.35
2022-11-03T04:15:49.092Z,7.13
2022-11-03T04:18:34.989Z,12.90
2022-11-03T04:21:20.477Z,12.95
2022-11-03T04:23:47.228Z,20.83
2022-11-03T04:26:19.651Z,12.93
2022-11-03T04:28:46.501Z,11.07
2022-11-03T04:31:14.406Z,6.82
2022-11-03T04:33:41.859Z,10.98
2022-11-03T04:36:18.970Z,12.27
2022-11-03T04:38:46.284Z,11.70
2022-11-03T04:41:16.985Z,13.43
2022-11-03T04:43:45.793Z,14.68
2022-11-03T04:46:16.341Z,8.10
2022-11-03T04:48:44.199Z,10.05
2022-11-03T04:51:15.283Z,8.93
2022-11-03T04:53:56.426Z,12.80
2022-11-03T04:56:25.286Z,12.98
2022-11-03T04:58:53.284Z,12.60
2022-11-03T05:01:24.502Z,12.50
2022-11-03T05:03:54.445Z,14.60
2022-11-03T05:06:23.745Z,11.80
2022-11-03T05:08:55.134Z,7.25
2022-11-03T05:11:26.622Z,7.20
2022-11-03T05:13:53.730Z,15.07
2022-11-03T05:16:20.786Z,7.63
2022-11-03T05:18:50.241Z,10.80
2022-11-03T05:21:21.894Z,7.22
2022-11-03T05:24:02.443Z,12.23
2022-11-03T05:26:35.261Z,10.25
2022-11-03T05:29:18.620Z,11.10
2022-11-03T05:31:48.322Z,7.30
2022-11-03T05:34:34.871Z,12.68
2022-11-03T05:37:07.374Z,10.00
2022-11-03T05:39:40.614Z,10.07
2022-11-03T05:42:20.992Z,9.98
2022-11-03T05:44:47.734Z,7.47
2022-11-03T05:47:21.568Z,6.15
2022-11-03T05:49:50.929Z,6.32
2022-11-03T05:52:23.620Z,6.82
2022-11-03T05:54:50.405Z,7.90
2022-11-03T05:57:18.665Z,13.13
2022-11-03T05:59:47.586Z,7.20
2022-11-03T06:02:36.566Z,6.40
2022-11-03T06:05:15.749Z,10.52
2022-11-03T06:07:42.537Z,12.40
2022-11-03T06:10:23.601Z,5.35
2022-11-03T06:12:50.258Z,4.55
2022-11-03T06:15:28.661Z,6.85
2022-11-03T06:17:55.895Z,8.65
2022-11-03T06:20:23.191Z,8.55
2022-11-03T06:22:53.084Z,8.30
2022-11-03T06:25:30.139Z,5.80
2022-11-03T06:28:02.430Z,9.23
2022-11-03T06:30:36.063Z,7.53
2022-11-03T06:33:13.483Z,1.27
2022-11-03T06:35:40.245Z,11.32
2022-11-03T06:38:19.439Z,7.68
2022-11-03T06:40:49.240Z,8.15
2022-11-03T06:43:30.334Z,5.97
2022-11-03T06:45:59.211Z,5.00
2022-11-03T06:48:28.432Z,4.60
2022-11-03T06:50:56.963Z,8.75
2022-11-03T06:53:29.245Z,3.58
2022-11-03T06:55:56.379Z,9.35
2022-11-03T06:58:34.981Z,5.38
2022-11-03T07:01:22.789Z,3.78
2022-11-03T07:03:52.388Z,6.60
2022-11-03T07:06:25.500Z,3.15
2022-11-03T07:08:55.554Z,5.90
2022-11-03T07:11:31.974Z,4.75
2022-11-03T07:14:22.616Z,9.00
2022-11-03T07:16:58.797Z,3.47
2022-11-03T07:19:31.271Z,4.65
2022-11-03T07:22:04.797Z,8.65
2022-11-03T07:24:36.433Z,3.53
2022-11-03T07:27:21.026Z,3.22
2022-11-03T07:29:49.641Z,7.20
2022-11-03T07:32:19.801Z,5.35
2022-11-03T07:34:48.897Z,8.00
2022-11-03T07:37:26.001Z,4.22
2022-11-03T07:39:54.189Z,7.75
2022-11-03T07:42:23.090Z,11.63
2022-11-03T07:44:50.593Z,6.65
2022-11-03T07:47:25.741Z,5.25
2022-11-03T07:49:54.437Z,3.25
2022-11-03T07:52:24.601Z,5.78
2022-11-03T07:54:55.092Z,7.82
2022-11-03T07:57:32.101Z,6.28
2022-11-03T08:00:08.917Z,4.60
2022-11-03T08:02:42.226Z,6.35
2022-11-03T08:05:09.611Z,5.28
2022-11-03T08:07:36.377Z,9.45
2022-11-03T08:10:03.578Z,9.52
2022-11-03T08:12:30.839Z,4.45
2022-11-03T08:14:57.491Z,7.95
2022-11-03T08:17:24.102Z,7.03
2022-11-03T08:19:50.887Z,7.38
2022-11-03T08:22:17.669Z,6.57
2022-11-03T08:24:44.347Z,8.55
2022-11-03T08:27:11.157Z,3.10
2022-11-03T08:29:38.125Z,4.82
2022-11-03T08:32:05.054Z,7.50
2022-11-03T08:34:31.869Z,2.60
2022-11-03T08:36:58.537Z,8.25
2022-11-03T08:39:28.396Z,8.45
2022-11-03T08:41:55.033Z,5.22
2022-11-03T08:44:21.656Z,7.43
2022-11-03T08:46:49.478Z,4.95
2022-11-03T08:49:16.370Z,3.83
2022-11-03T08:51:44.652Z,8.57
2022-11-03T08:54:11.686Z,9.60
2022-11-03T08:56:38.350Z,4.80
2022-11-03T08:59:04.957Z,5.13
2022-11-03T09:01:31.670Z,4.68
2022-11-03T09:03:58.517Z,9.75
2022-11-03T09:06:25.340Z,4.95
2022-11-03T09:11:38.704Z,7.82
2022-11-03T09:14:05.611Z,5.38
2022-11-03T09:16:32.273Z,7.70
2022-11-03T09:18:58.932Z,4.45
2022-11-03T09:21:25.548Z,8.10
2022-11-03T09:23:52.177Z,9.18
2022-11-03T09:26:19.214Z,4.15
2022-11-03T09:28:46.256Z,3.72
2022-11-03T09:31:13.175Z,7.35
2022-11-03T09:33:46.081Z,6.88
2022-11-03T09:36:13.170Z,4.90
2022-11-03T09:38:39.805Z,4.20
2022-11-03T09:41:18.546Z,3.15
2022-11-03T09:43:54.012Z,6.97
2022-11-03T09:46:20.768Z,6.90
2022-11-03T09:48:47.566Z,12.40
2022-11-03T09:51:20.492Z,7.68
2022-11-03T09:53:48.374Z,9.88
2022-11-03T09:56:24.614Z,6.05
2022-11-03T09:58:54.464Z,7.75
2022-11-03T10:01:22.413Z,10.23
2022-11-03T10:03:49.471Z,10.70
2022-11-03T10:06:18.778Z,4.53
2022-11-03T10:08:47.131Z,3.95
2022-11-03T10:11:14.984Z,6.40
2022-11-03T10:13:44.722Z,7.25
2022-11-03T10:16:17.161Z,4.20
2022-11-03T10:18:45.824Z,5.68
2022-11-03T10:21:31.576Z,6.10
2022-11-03T10:23:58.197Z,8.30
2022-11-03T10:26:25.185Z,4.03
2022-11-03T10:29:00.570Z,6.10
2022-11-03T10:31:38.095Z,4.85
2022-11-03T10:34:06.645Z,5.70
2022-11-03T10:36:34.621Z,9.50
2022-11-03T10:39:39.366Z,5.68
2022-11-03T10:42:06.027Z,3.47
2022-11-03T10:44:32.669Z,5.28
2022-11-03T10:47:04.877Z,8.02
2022-11-03T10:49:34.705Z,8.77
2022-11-03T10:52:18.326Z,8.90
2022-11-03T10:54:45.631Z,5.13
2022-11-03T10:57:12.506Z,3.83
2022-11-03T10:59:39.574Z,5.43
2022-11-03T11:02:17.595Z,2.15
2022-11-03T11:04:46.944Z,3.50
2022-11-03T11:07:34.757Z,7.97
2022-11-03T11:10:11.145Z,6.60
2022-11-03T11:12:38.011Z,4.55
2022-11-03T11:15:36.868Z,2.97
2022-11-03T11:18:03.551Z,4.68
2022-11-03T11:20:44.315Z,7.32
2022-11-03T11:23:29.348Z,9.60
2022-11-03T11:26:30.044Z,8.23
2022-11-03T11:29:13.485Z,5.63
2022-11-03T11:31:46.495Z,7.78
2022-11-03T11:34:19.807Z,8.35
2022-11-03T11:37:07.878Z,1.85
2022-11-03T11:39:35.953Z,5.15
2022-11-03T11:42:20.229Z,4.72
2022-11-03T11:44:50.949Z,3.35
2022-11-03T11:47:23.927Z,8.05
2022-11-03T11:50:12.658Z,3.25
2022-11-03T11:52:50.952Z,3.30
2022-11-03T11:55:19.751Z,3.83
2022-11-03T11:57:47.738Z,3.65
2022-11-03T12:00:24.798Z,3.20
2022-11-03T12:05:27.852Z,4.75
2022-11-03T12:07:55.915Z,5.53
2022-11-03T12:10:28.159Z,1.60
2022-11-03T12:12:56.574Z,3.78
2022-11-03T12:15:55.716Z,5.78
2022-11-03T12:18:49.274Z,4.13
2022-11-03T12:21:49.625Z,2.70
2022-11-03T12:24:32.266Z,1.52
2022-11-03T12:27:00.662Z,7.25
2022-11-03T12:29:27.628Z,4.63
2022-11-03T12:31:54.296Z,8.60
2022-11-03T12:34:21.891Z,4.47
2022-11-03T12:36:51.916Z,5.32
2022-11-03T12:39:22.450Z,3.88
2022-11-03T12:41:49.576Z,7.57
2022-11-03T12:44:16.308Z,7.82
2022-11-03T12:46:43.324Z,8.82
2022-11-03T12:49:11.016Z,8.00
2022-11-03T12:51:38.269Z,5.90
2022-11-03T12:54:05.122Z,3.35
2022-11-03T12:56:31.780Z,2.38
2022-11-03T12:59:17.048Z,5.40
2022-11-03T13:01:43.807Z,6.75
2022-11-03T13:04:10.633Z,2.22
2022-11-03T13:06:37.267Z,5.47
2022-11-03T13:09:04.008Z,5.55
2022-11-03T13:11:49.543Z,2.30
2022-11-03T13:14:16.266Z,3.28
2022-11-03T13:16:43.548Z,3.05
2022-11-03T13:19:10.814Z,6.32
2022-11-03T13:21:38.194Z,3.50
2022-11-03T13:24:05.265Z,6.45
2022-11-03T13:26:31.944Z,5.38
2022-11-03T13:28:58.604Z,2.05
2022-11-03T13:31:26.161Z,2.22
2022-11-03T13:33:53.149Z,3.35
2022-11-03T13:36:20.308Z,6.88
2022-11-03T13:38:47.014Z,4.97
2022-11-03T13:41:14.166Z,5.00
2022-11-03T13:43:40.894Z,2.42
2022-11-03T13:46:07.628Z,3.28
2022-11-03T13:51:21.780Z,3.55
2022-11-03T14:07:13.159Z,5.55
2022-11-03T14:09:40.318Z,3.97
2022-11-03T14:12:26.062Z,1.95
2022-11-03T14:14:52.744Z,7.90
2022-11-03T14:17:19.650Z,3.10
2022-11-03T14:19:52.038Z,1.60
2022-11-03T14:22:20.535Z,5.63
2022-11-03T14:24:47.346Z,6.88
2022-11-03T14:27:15.848Z,3.38
2022-11-03T14:29:43.861Z,4.70
2022-11-03T14:32:11.633Z,6.45
2022-11-03T14:34:38.595Z,4.65
2022-11-03T14:37:05.988Z,4.97
2022-11-03T14:39:32.877Z,5.07
2022-11-03T14:42:05.278Z,1.85
2022-11-03T14:44:36.993Z,2.42
2022-11-03T14:47:05.558Z,4.72
2022-11-03T14:49:33.999Z,4.25
2022-11-03T14:52:02.457Z,1.83
2022-11-03T14:54:30.743Z,3.65
2022-11-03T14:56:58.116Z,6.20
2022-11-03T14:59:25.586Z,1.80
2022-11-03T15:01:53.774Z,2.40
2022-11-03T15:04:21.732Z,3.08
2022-11-03T15:06:49.221Z,2.15
2022-11-03T15:09:16.384Z,4.18
2022-11-03T15:11:44.472Z,3.67
2022-11-03T15:14:12.168Z,2.70
2022-11-03T15:16:39.793Z,7.78
2022-11-03T15:19:07.819Z,2.22
2022-11-03T15:21:35.021Z,5.25
2022-11-03T15:26:48.622Z,7.30
2022-11-03T15:29:15.374Z,3.75
2022-11-03T15:31:47.627Z,2.80
2022-11-03T15:34:15.867Z,2.70
2022-11-03T15:36:42.627Z,4.82
2022-11-03T15:39:09.624Z,4.35
2022-11-03T15:41:36.299Z,6.95
2022-11-03T15:44:03.344Z,5.20
2022-11-03T15:46:30.489Z,5.40
2022-11-03T15:48:57.841Z,2.17
2022-11-03T15:51:25.463Z,2.80
2022-11-03T15:53:56.904Z,3.47
2022-11-03T15:56:29.737Z,0.77
2022-11-03T15:58:56.578Z,4.93
2022-11-03T16:01:24.023Z,4.00
2022-11-03T16:03:50.966Z,6.05
2022-11-03T16:06:18.227Z,3.97
2022-11-03T16:08:45.191Z,7.95
2022-11-03T16:11:12.004Z,3.13
2022-11-03T16:13:39.598Z,4.72
2022-11-03T16:16:06.807Z,4.10
2022-11-03T16:18:33.812Z,3.85
2022-11-03T16:21:00.625Z,4.60
2022-11-03T16:23:27.485Z,2.97
2022-11-03T16:25:54.221Z,2.95
2022-11-03T16:28:20.967Z,3.50
2022-11-03T16:30:53.788Z,3.10
2022-11-03T16:33:21.056Z,3.20
2022-11-03T16:35:48.227Z,4.07
2022-11-03T16:38:15.536Z,1.73
2022-11-03T16:40:43.071Z,2.85
2022-11-03T16:43:09.972Z,5.13
2022-11-03T16:45:38.084Z,2.60
2022-11-03T16:48:06.509Z,3.20
2022-11-03T16:50:34.935Z,1.13
2022-11-03T16:53:01.834Z,1.88
2022-11-03T16:55:28.596Z,6.97
2022-11-03T16:57:55.275Z,2.25
2022-11-03T17:00:24.390Z,3.67
2022-11-03T17:02:51.369Z,1.55
2022-11-03T17:05:20.850Z,5.60
2022-11-03T17:07:53.274Z,6.97
2022-11-03T17:10:21.344Z,4.57
2022-11-03T17:12:48.934Z,2.45
2022-11-03T17:15:17.266Z,6.75
2022-11-03T17:17:44.133Z,1.88
2022-11-03T17:20:12.094Z,1.33
2022-11-03T17:22:39.623Z,3.15
2022-11-03T17:25:09.572Z,2.38
2022-11-03T17:27:52.314Z,1.90
2022-11-03T17:30:20.737Z,7.97
2022-11-03T17:32:48.984Z,3.85
2022-11-03T17:35:25.866Z,5.72
2022-11-03T17:40:22.245Z,11.88
2022-11-03T17:42:50.319Z,7.47
2022-11-03T17:45:20.111Z,7.35
2022-11-03T17:47:47.000Z,5.20
2022-11-03T17:50:16.216Z,8.52
2022-11-03T17:52:46.974Z,10.75
2022-11-03T17:55:22.704Z,6.85
2022-11-03T17:57:49.967Z,6.85
2022-11-03T18:00:23.509Z,3.50
2022-11-03T18:02:51.590Z,2.53
2022-11-03T18:05:29.615Z,4.03
2022-11-03T18:07:59.730Z,3.83
2022-11-03T18:10:29.798Z,4.47
2022-11-03T18:13:18.881Z,3.45
2022-11-03T18:16:15.239Z,3.97
2022-11-03T18:18:44.070Z,2.65
2022-11-03T18:21:22.877Z,5.82
2022-11-03T18:23:49.979Z,2.20
2022-11-03T18:26:20.171Z,2.55
2022-11-03T18:28:47.389Z,4.57
2022-11-03T18:31:19.101Z,2.05
2022-11-03T18:33:46.180Z,1.73
2022-11-03T18:36:14.907Z,1.75
2022-11-03T18:38:43.402Z,4.25
2022-11-03T18:41:34.112Z,4.63
2022-11-03T18:44:01.934Z,2.53
2022-11-03T18:46:30.364Z,1.20
2022-11-03T18:48:57.163Z,5.32
2022-11-03T18:51:24.036Z,4.63
2022-11-03T18:53:51.515Z,1.83
2022-11-03T18:56:19.335Z,0.73
2022-11-03T18:58:46.125Z,1.83
2022-11-03T19:01:21.852Z,2.65
2022-11-03T19:03:48.921Z,2.28
2022-11-03T19:06:17.161Z,4.07
2022-11-03T19:08:45.541Z,1.23
2022-11-03T19:11:13.781Z,1.80
2022-11-03T19:13:44.485Z,2.25
2022-11-03T19:16:17.143Z,3.70
2022-11-03T19:18:45.178Z,3.78
2022-11-03T19:21:26.044Z,2.20
2022-11-03T19:23:58.072Z,3.30
2022-11-03T19:26:36.518Z,3.00
2022-11-03T19:29:11.536Z,2.63
2022-11-03T19:31:41.315Z,2.03
2022-11-03T19:34:15.866Z,4.63
2022-11-03T19:36:43.113Z,1.52
2022-11-03T19:39:25.454Z,3.22
2022-11-03T19:42:11.784Z,3.70
2022-11-03T19:44:38.562Z,7.35
2022-11-03T19:47:05.527Z,2.70
2022-11-03T19:49:33.782Z,2.42
2022-11-03T19:52:00.945Z,2.35
2022-11-03T19:54:27.972Z,3.25
2022-11-03T19:56:54.690Z,2.83
2022-11-03T19:59:21.717Z,2.75
2022-11-03T20:01:50.925Z,4.15
2022-11-03T20:04:17.964Z,4.30
2022-11-03T20:06:44.972Z,3.13
2022-11-03T20:09:18.379Z,4.35
2022-11-03T20:11:45.731Z,5.68
2022-11-03T20:14:26.471Z,5.15
2022-11-03T20:17:17.199Z,4.10
2022-11-03T20:19:44.313Z,5.90
2022-11-03T20:22:18.299Z,6.57
2022-11-03T20:24:47.727Z,9.30
2022-11-03T20:27:19.047Z,7.65
2022-11-03T20:29:45.781Z,7.03
2022-11-03T20:32:12.770Z,7.78
2022-11-03T20:34:40.264Z,10.30
2022-11-03T20:37:19.750Z,9.68
2022-11-03T20:39:48.548Z,9.52
2022-11-03T20:42:22.596Z,8.15
2022-11-03T20:44:50.215Z,7.32
2022-11-03T20:47:17.913Z,8.95
2022-11-03T20:49:45.419Z,7.63
2022-11-03T20:52:14.225Z,13.57
2022-11-03T20:54:43.346Z,8.43
2022-11-03T20:57:14.056Z,7.78
2022-11-03T20:59:41.414Z,8.52
2022-11-03T21:02:13.885Z,8.35
2022-11-03T21:04:42.513Z,14.02
2022-11-03T21:07:12.355Z,6.32
2022-11-03T21:09:39.670Z,6.32
2022-11-03T21:12:11.621Z,6.18
2022-11-03T21:14:38.417Z,8.10
2022-11-03T21:17:28.801Z,11.23
2022-11-03T21:19:58.875Z,11.23
2022-11-03T21:22:51.849Z,9.95
2022-11-03T21:25:21.858Z,11.23
2022-11-03T21:27:49.895Z,10.55
2022-11-03T21:30:18.180Z,10.52
2022-11-03T21:32:45.416Z,9.65
2022-11-03T21:35:19.620Z,12.85
2022-11-03T21:37:47.332Z,11.98
2022-11-03T21:40:14.231Z,13.57
2022-11-03T21:43:01.473Z,10.27
2022-11-03T21:45:28.495Z,8.95
2022-11-03T21:48:21.336Z,12.10
2022-11-03T21:50:48.716Z,8.85
2022-11-03T21:53:18.930Z,9.45
2022-11-03T21:55:49.708Z,10.20
2022-11-03T21:58:16.903Z,10.65
2022-11-03T22:00:44.027Z,12.25
2022-11-03T22:03:11.537Z,15.65
2022-11-03T22:05:38.378Z,11.88
2022-11-03T22:08:08.069Z,6.78
2022-11-03T22:10:38.806Z,11.75
2022-11-03T22:13:06.183Z,11.18
2022-11-03T22:15:51.919Z,12.02
2022-11-03T22:18:18.603Z,12.50
2022-11-03T22:21:03.843Z,11.50
2022-11-03T22:23:49.527Z,11.85
2022-11-03T22:26:35.291Z,11.07
2022-11-03T22:29:24.968Z,14.95
2022-11-03T22:31:51.747Z,12.50
2022-11-03T22:34:37.178Z,13.32
2022-11-03T22:37:03.857Z,12.05
2022-11-03T22:39:49.381Z,11.00
2022-11-03T22:42:34.934Z,12.27
2022-11-03T22:45:20.038Z,11.18
2022-11-03T22:47:46.750Z,19.20
2022-11-03T22:50:13.548Z,9.00
2022-11-03T22:52:40.297Z,11.45
2022-11-03T22:55:09.797Z,12.98
2022-11-03T22:57:36.452Z,9.77
2022-11-03T23:00:05.714Z,12.05
2022-11-03T23:02:32.496Z,10.75
2022-11-03T23:04:59.166Z,11.48
2022-11-03T23:07:31.587Z,8.80
2022-11-03T23:10:04.592Z,10.75
2022-11-03T23:12:31.917Z,13.57
2022-11-03T23:15:17.219Z,8.80
2022-11-03T23:18:02.121Z,10.48
2022-11-03T23:20:47.434Z,10.02
2022-11-03T23:23:34.194Z,13.43
2022-11-03T23:26:00.982Z,9.70
2022-11-03T23:28:27.739Z,7.65
2022-11-03T23:30:54.349Z,8.95
2022-11-03T23:33:20.994Z,12.52
2022-11-03T23:35:47.631Z,6.88
2022-11-03T23:38:14.530Z,8.77
2022-11-03T23:40:41.235Z,6.95
2022-11-03T23:43:08.142Z,12.63
2022-11-03T23:45:56.395Z,7.30
2022-11-03T23:48:41.914Z,12.98
2022-11-03T23:51:08.678Z,8.40
2022-11-03T23:53:35.337Z,7.80
2022-11-03T23:56:23.594Z,9.65
2022-11-03T23:58:51.337Z,11.27
